sensor_id;sensor_type;location;lat;lon;timestamp;pressure;altitude;pressure_sealevel;temperature;humidity
79544;BME280;68994;47.176;7.534;2023-07-31T00:00:08;96244.94;;;13.67;75.99
79544;BME280;68994;47.176;7.534;2023-07-31T00:02:35;96246.31;;;13.59;76.29
79544;BME280;68994;47.176;7.534;2023-07-31T00:05:02;96242.28;;;13.57;75.30
79544;BME280;68994;47.176;7.534;2023-07-31T00:07:29;96238.81;;;13.61;74.18
79544;BME280;68994;47.176;7.534;2023-07-31T00:09:55;96237.44;;;13.64;75.59
79544;BME280;68994;47.176;7.534;2023-07-31T00:12:24;96241.19;;;13.68;74.34
79544;BME280;68994;47.176;7.534;2023-07-31T00:14:50;96238.53;;;13.68;74.86
79544;BME280;68994;47.176;7.534;2023-07-31T00:17:17;96235.84;;;13.68;74.83
79544;BME280;68994;47.176;7.534;2023-07-31T00:19:44;96245.50;;;13.59;76.22
79544;BME280;68994;47.176;7.534;2023-07-31T00:22:11;96246.84;;;13.56;75.59
79544;BME280;68994;47.176;7.534;2023-07-31T00:24:38;96250.34;;;13.51;75.72
79544;BME280;68994;47.176;7.534;2023-07-31T00:27:05;96248.19;;;13.43;76.30
79544;BME280;68994;47.176;7.534;2023-07-31T00:29:33;96236.41;;;13.49;75.50
79544;BME280;68994;47.176;7.534;2023-07-31T00:31:59;96225.13;;;13.63;73.03
79544;BME280;68994;47.176;7.534;2023-07-31T00:34:26;96232.63;;;13.71;73.87
79544;BME280;68994;47.176;7.534;2023-07-31T00:36:53;96230.72;;;13.71;73.70
79544;BME280;68994;47.176;7.534;2023-07-31T00:39:19;96232.06;;;13.74;73.37
79544;BME280;68994;47.176;7.534;2023-07-31T00:41:46;96235.84;;;13.68;72.62
79544;BME280;68994;47.176;7.534;2023-07-31T00:44:12;96236.38;;;13.60;73.28
79544;BME280;68994;47.176;7.534;2023-07-31T00:46:40;96230.50;;;13.63;73.13
79544;BME280;68994;47.176;7.534;2023-07-31T00:49:07;96234.50;;;13.55;74.61
79544;BME280;68994;47.176;7.534;2023-07-31T00:51:34;96237.47;;;13.48;75.42
79544;BME280;68994;47.176;7.534;2023-07-31T00:54:01;96237.47;;;13.53;73.34
79544;BME280;68994;47.176;7.534;2023-07-31T00:56:29;96237.97;;;13.55;73.55
79544;BME280;68994;47.176;7.534;2023-07-31T00:58:56;96236.66;;;13.58;74.13
79544;BME280;68994;47.176;7.534;2023-07-31T01:01:22;96229.44;;;13.48;75.47
79544;BME280;68994;47.176;7.534;2023-07-31T01:03:52;96234.00;;;13.43;75.54
79544;BME280;68994;47.176;7.534;2023-07-31T01:06:37;96235.03;;;13.31;76.26
79544;BME280;68994;47.176;7.534;2023-07-31T01:09:12;96230.47;;;13.22;76.50
79544;BME280;68994;47.176;7.534;2023-07-31T01:11:48;96227.53;;;13.13;77.11
79544;BME280;68994;47.176;7.534;2023-07-31T01:14:15;96220.84;;;13.05;76.92
79544;BME280;68994;47.176;7.534;2023-07-31T01:16:42;96220.84;;;13.05;78.29
79544;BME280;68994;47.176;7.534;2023-07-31T01:19:11;96221.91;;;12.99;77.92
79544;BME280;68994;47.176;7.534;2023-07-31T01:22:09;96217.88;;;12.96;77.65
79544;BME280;68994;47.176;7.534;2023-07-31T01:24:53;96222.97;;;12.93;78.38
79544;BME280;68994;47.176;7.534;2023-07-31T01:27:24;96214.94;;;12.88;78.49
79544;BME280;68994;47.176;7.534;2023-07-31T01:29:56;96213.84;;;12.84;78.06
79544;BME280;68994;47.176;7.534;2023-07-31T01:32:24;96210.09;;;12.79;77.42
79544;BME280;68994;47.176;7.534;2023-07-31T01:34:53;96205.53;;;12.75;77.61
79544;BME280;68994;47.176;7.534;2023-07-31T01:37:20;96207.44;;;12.74;77.96
79544;BME280;68994;47.176;7.534;2023-07-31T01:39:46;96201.28;;;12.74;78.67
79544;BME280;68994;47.176;7.534;2023-07-31T01:42:14;96203.69;;;12.75;79.09
79544;BME280;68994;47.176;7.534;2023-07-31T01:44:42;96205.53;;;12.75;78.70
79544;BME280;68994;47.176;7.534;2023-07-31T01:47:08;96206.38;;;12.75;79.53
79544;BME280;68994;47.176;7.534;2023-07-31T01:49:35;96195.41;;;12.77;79.07
79544;BME280;68994;47.176;7.534;2023-07-31T01:52:02;96194.84;;;12.75;78.37
79544;BME280;68994;47.176;7.534;2023-07-31T01:54:28;96196.19;;;12.72;78.22
79544;BME280;68994;47.176;7.534;2023-07-31T01:56:55;96189.47;;;12.70;78.78
79544;BME280;68994;47.176;7.534;2023-07-31T01:59:21;96191.63;;;12.68;79.19
79544;BME280;68994;47.176;7.534;2023-07-31T02:01:49;96190.81;;;12.62;78.74
79544;BME280;68994;47.176;7.534;2023-07-31T02:04:16;96195.59;;;12.55;79.31
79544;BME280;68994;47.176;7.534;2023-07-31T02:06:44;96193.19;;;12.53;79.69
79544;BME280;68994;47.176;7.534;2023-07-31T02:09:10;96185.41;;;12.52;79.44
79544;BME280;68994;47.176;7.534;2023-07-31T02:11:37;96183.84;;;12.51;79.02
79544;BME280;68994;47.176;7.534;2023-07-31T02:14:03;96183.84;;;12.51;79.64
79544;BME280;68994;47.176;7.534;2023-07-31T02:16:30;96190.25;;;12.50;79.64
79544;BME280;68994;47.176;7.534;2023-07-31T02:18:58;96183.81;;;12.46;79.29
79544;BME280;68994;47.176;7.534;2023-07-31T02:21:24;96180.31;;;12.45;79.58
79544;BME280;68994;47.176;7.534;2023-07-31T02:23:51;96183.28;;;12.38;79.63
79544;BME280;68994;47.176;7.534;2023-07-31T02:26:17;96177.63;;;12.35;79.54
79544;BME280;68994;47.176;7.534;2023-07-31T02:28:44;96173.09;;;12.30;80.13
79544;BME280;68994;47.176;7.534;2023-07-31T02:31:10;96169.31;;;12.26;80.68
79544;BME280;68994;47.176;7.534;2023-07-31T02:33:37;96165.06;;;12.25;80.09
79544;BME280;68994;47.176;7.534;2023-07-31T02:36:05;96159.72;;;12.25;80.54
79544;BME280;68994;47.176;7.534;2023-07-31T02:38:32;96158.88;;;12.24;80.84
79544;BME280;68994;47.176;7.534;2023-07-31T02:40:58;96169.31;;;12.21;80.67
79544;BME280;68994;47.176;7.534;2023-07-31T02:43:25;96164.22;;;12.19;80.93
79544;BME280;68994;47.176;7.534;2023-07-31T02:45:51;96166.38;;;12.17;80.25
79544;BME280;68994;47.176;7.534;2023-07-31T02:48:18;96157.78;;;12.10;80.37
79544;BME280;68994;47.176;7.534;2023-07-31T02:50:45;96159.38;;;12.11;80.43
79544;BME280;68994;47.176;7.534;2023-07-31T02:53:13;96155.66;;;12.12;81.59
79544;BME280;68994;47.176;7.534;2023-07-31T02:55:40;96158.06;;;12.14;81.58
79544;BME280;68994;47.176;7.534;2023-07-31T02:58:07;96157.81;;;12.15;80.90
79544;BME280;68994;47.176;7.534;2023-07-31T03:00:34;96150.84;;;12.14;80.93
79544;BME280;68994;47.176;7.534;2023-07-31T03:03:00;96156.97;;;12.15;81.63
79544;BME280;68994;47.176;7.534;2023-07-31T03:05:27;96159.13;;;12.13;80.67
79544;BME280;68994;47.176;7.534;2023-07-31T03:07:53;96155.13;;;12.10;81.03
79544;BME280;68994;47.176;7.534;2023-07-31T03:10:21;96161.53;;;12.09;81.16
79544;BME280;68994;47.176;7.534;2023-07-31T03:12:48;96164.97;;;12.04;81.23
79544;BME280;68994;47.176;7.534;2023-07-31T03:15:15;96167.13;;;12.02;81.15
79544;BME280;68994;47.176;7.534;2023-07-31T03:17:42;96166.56;;;12.00;81.49
79544;BME280;68994;47.176;7.534;2023-07-31T03:20:09;96166.03;;;11.98;81.97
79544;BME280;68994;47.176;7.534;2023-07-31T03:22:36;96171.94;;;12.00;81.76
79544;BME280;68994;47.176;7.534;2023-07-31T03:25:03;96172.97;;;11.99;81.88
79544;BME280;68994;47.176;7.534;2023-07-31T03:27:31;96176.75;;;11.98;81.81
79544;BME280;68994;47.176;7.534;2023-07-31T03:29:58;96185.56;;;11.99;82.16
79544;BME280;68994;47.176;7.534;2023-07-31T03:32:26;96177.00;;;12.02;81.95
79544;BME280;68994;47.176;7.534;2023-07-31T03:34:52;96184.22;;;12.06;82.46
79544;BME280;68994;47.176;7.534;2023-07-31T03:37:19;96186.38;;;12.10;81.95
79544;BME280;68994;47.176;7.534;2023-07-31T03:39:45;96190.41;;;12.07;81.56
79544;BME280;68994;47.176;7.534;2023-07-31T03:42:12;96188.78;;;12.06;81.89
79544;BME280;68994;47.176;7.534;2023-07-31T03:44:40;96206.72;;;12.11;82.29
79544;BME280;68994;47.176;7.534;2023-07-31T03:47:06;96201.13;;;12.12;82.24
79544;BME280;68994;47.176;7.534;2023-07-31T03:49:33;96207.81;;;12.15;81.73
79544;BME280;68994;47.176;7.534;2023-07-31T03:52:00;96194.16;;;12.11;81.95
79544;BME280;68994;47.176;7.534;2023-07-31T03:54:26;96192.81;;;12.09;82.25
79544;BME280;68994;47.176;7.534;2023-07-31T03:56:53;96188.78;;;12.06;83.06
79544;BME280;68994;47.176;7.534;2023-07-31T03:59:19;96187.47;;;12.09;82.47
79544;BME280;68994;47.176;7.534;2023-07-31T04:01:47;96183.72;;;12.10;82.89
79544;BME280;68994;47.176;7.534;2023-07-31T04:04:14;96190.16;;;12.09;82.19
79544;BME280;68994;47.176;7.534;2023-07-31T04:06:40;96193.34;;;12.05;82.58
79544;BME280;68994;47.176;7.534;2023-07-31T04:09:07;96193.63;;;12.14;82.14
79544;BME280;68994;47.176;7.534;2023-07-31T04:11:33;96196.03;;;12.16;82.42
79544;BME280;68994;47.176;7.534;2023-07-31T04:14:00;96201.41;;;12.16;82.29
79544;BME280;68994;47.176;7.534;2023-07-31T04:16:26;96203.53;;;12.14;82.48
79544;BME280;68994;47.176;7.534;2023-07-31T04:18:54;96204.59;;;12.13;82.43
79544;BME280;68994;47.176;7.534;2023-07-31T04:21:21;96210.47;;;12.10;82.35
79544;BME280;68994;47.176;7.534;2023-07-31T04:23:47;96210.97;;;12.06;82.71
79544;BME280;68994;47.176;7.534;2023-07-31T04:26:14;96219.56;;;12.09;82.24
79544;BME280;68994;47.176;7.534;2023-07-31T04:28:41;96219.06;;;12.12;82.74
79544;BME280;68994;47.176;7.534;2023-07-31T04:31:07;96213.97;;;12.15;82.78
79544;BME280;68994;47.176;7.534;2023-07-31T04:33:34;96221.19;;;12.20;82.08
79544;BME280;68994;47.176;7.534;2023-07-31T04:36:02;96216.94;;;12.24;81.19
79544;BME280;68994;47.176;7.534;2023-07-31T04:38:29;96211.34;;;12.31;81.35
79544;BME280;68994;47.176;7.534;2023-07-31T04:40:55;96217.25;;;12.38;81.47
79544;BME280;68994;47.176;7.534;2023-07-31T04:43:22;96205.50;;;12.39;80.86
79544;BME280;68994;47.176;7.534;2023-07-31T04:45:48;96203.88;;;12.43;81.54
79544;BME280;68994;47.176;7.534;2023-07-31T04:48:15;96209.25;;;12.48;81.34
79544;BME280;68994;47.176;7.534;2023-07-31T04:50:42;96213.81;;;12.53;81.22
79544;BME280;68994;47.176;7.534;2023-07-31T04:53:10;96210.88;;;12.65;81.30
79544;BME280;68994;47.176;7.534;2023-07-31T04:55:37;96216.78;;;12.72;80.32
79544;BME280;68994;47.176;7.534;2023-07-31T04:58:03;96212.25;;;12.88;78.66
79544;BME280;68994;47.176;7.534;2023-07-31T05:00:30;96211.22;;;12.94;79.51
79544;BME280;68994;47.176;7.534;2023-07-31T05:02:57;96220.84;;;13.05;76.74
79544;BME280;68994;47.176;7.534;2023-07-31T05:05:23;96218.16;;;13.10;77.86
79544;BME280;68994;47.176;7.534;2023-07-31T05:07:50;96215.78;;;13.09;77.57
79544;BME280;68994;47.176;7.534;2023-07-31T05:10:18;96206.38;;;13.16;76.82
79544;BME280;68994;47.176;7.534;2023-07-31T05:12:44;96208.00;;;13.17;76.93
79544;BME280;68994;47.176;7.534;2023-07-31T05:15:11;96205.31;;;13.23;77.12
79544;BME280;68994;47.176;7.534;2023-07-31T05:17:37;96210.91;;;13.31;77.91
79544;BME280;68994;47.176;7.534;2023-07-31T05:20:05;96207.97;;;13.48;76.30
79544;BME280;68994;47.176;7.534;2023-07-31T05:22:32;96195.09;;;13.50;76.07
79544;BME280;68994;47.176;7.534;2023-07-31T05:24:59;96202.06;;;13.62;77.47
79544;BME280;68994;47.176;7.534;2023-07-31T05:27:26;96211.69;;;13.73;77.73
79544;BME280;68994;47.176;7.534;2023-07-31T05:29:53;96216.50;;;13.81;77.31
79544;BME280;68994;47.176;7.534;2023-07-31T05:32:19;96216.75;;;13.90;77.03
79544;BME280;68994;47.176;7.534;2023-07-31T05:34:46;96215.94;;;13.95;76.55
79544;BME280;68994;47.176;7.534;2023-07-31T05:37:13;96219.94;;;13.97;75.89
79544;BME280;68994;47.176;7.534;2023-07-31T05:39:40;96216.97;;;13.99;75.53
79544;BME280;68994;47.176;7.534;2023-07-31T05:42:07;96218.03;;;14.03;75.50
79544;BME280;68994;47.176;7.534;2023-07-31T05:44:35;96225.25;;;14.07;75.29
79544;BME280;68994;47.176;7.534;2023-07-31T05:47:01;96220.72;;;14.08;74.33
79544;BME280;68994;47.176;7.534;2023-07-31T05:49:27;96223.91;;;14.10;75.24
79544;BME280;68994;47.176;7.534;2023-07-31T05:51:54;96221.72;;;14.17;75.10
79544;BME280;68994;47.176;7.534;2023-07-31T05:54:21;96220.13;;;14.21;73.91
79544;BME280;68994;47.176;7.534;2023-07-31T05:56:47;96222.25;;;14.24;75.13
79544;BME280;68994;47.176;7.534;2023-07-31T05:59:14;96222.78;;;14.26;75.24
79544;BME280;68994;47.176;7.534;2023-07-31T06:01:42;96219.56;;;14.29;75.19
79544;BME280;68994;47.176;7.534;2023-07-31T06:04:08;96214.66;;;14.42;75.67
79544;BME280;68994;47.176;7.534;2023-07-31T06:06:35;96202.53;;;14.50;74.65
79544;BME280;68994;47.176;7.534;2023-07-31T06:09:02;96189.91;;;14.50;74.48
79544;BME280;68994;47.176;7.534;2023-07-31T06:11:29;96186.66;;;14.53;74.50
79544;BME280;68994;47.176;7.534;2023-07-31T06:13:55;96193.66;;;14.49;74.00
79544;BME280;68994;47.176;7.534;2023-07-31T06:16:22;96188.06;;;14.40;73.77
79544;BME280;68994;47.176;7.534;2023-07-31T06:18:50;96188.34;;;14.39;75.74
79544;BME280;68994;47.176;7.534;2023-07-31T06:21:17;96200.16;;;14.38;76.58
79544;BME280;68994;47.176;7.534;2023-07-31T06:23:43;96199.31;;;14.47;74.97
79544;BME280;68994;47.176;7.534;2023-07-31T06:26:10;96196.59;;;14.53;76.29
79544;BME280;68994;47.176;7.534;2023-07-31T06:28:37;96202.19;;;14.67;75.10
79544;BME280;68994;47.176;7.534;2023-07-31T06:31:03;96202.63;;;14.79;76.27
79544;BME280;68994;47.176;7.534;2023-07-31T06:33:30;96202.09;;;14.82;75.58
79544;BME280;68994;47.176;7.534;2023-07-31T06:35:58;96196.16;;;14.85;73.88
79544;BME280;68994;47.176;7.534;2023-07-31T06:38:26;96185.88;;;14.92;74.25
79544;BME280;68994;47.176;7.534;2023-07-31T06:40:52;96175.06;;;15.02;73.75
79544;BME280;68994;47.176;7.534;2023-07-31T06:43:19;96174.53;;;15.00;73.01
79544;BME280;68994;47.176;7.534;2023-07-31T06:45:46;96181.19;;;15.08;73.29
79544;BME280;68994;47.176;7.534;2023-07-31T06:48:15;96188.91;;;15.15;73.00
79544;BME280;68994;47.176;7.534;2023-07-31T06:50:42;96187.88;;;15.11;72.62
79544;BME280;68994;47.176;7.534;2023-07-31T06:53:09;96189.50;;;15.12;73.00
79544;BME280;68994;47.176;7.534;2023-07-31T06:55:36;96186.78;;;15.17;73.88
79544;BME280;68994;47.176;7.534;2023-07-31T06:58:03;96199.66;;;15.20;73.35
79544;BME280;68994;47.176;7.534;2023-07-31T07:00:30;96187.00;;;15.20;73.16
79544;BME280;68994;47.176;7.534;2023-07-31T07:02:57;96187.00;;;15.20;73.74
79544;BME280;68994;47.176;7.534;2023-07-31T07:05:24;96181.06;;;15.24;73.82
79544;BME280;68994;47.176;7.534;2023-07-31T07:07:50;96183.44;;;15.30;73.99
79544;BME280;68994;47.176;7.534;2023-07-31T07:10:19;96177.34;;;15.49;73.60
79544;BME280;68994;47.176;7.534;2023-07-31T07:12:46;96173.41;;;15.65;71.68
79544;BME280;68994;47.176;7.534;2023-07-31T07:15:12;96159.31;;;15.79;70.22
79544;BME280;68994;47.176;7.534;2023-07-31T07:17:39;96161.69;;;16.04;70.26
79544;BME280;68994;47.176;7.534;2023-07-31T07:20:07;96158.66;;;16.30;69.02
79544;BME280;68994;47.176;7.534;2023-07-31T07:22:33;96160.47;;;16.35;68.48
79544;BME280;68994;47.176;7.534;2023-07-31T07:25:01;96171.19;;;16.59;69.14
79544;BME280;68994;47.176;7.534;2023-07-31T07:27:29;96163.03;;;16.83;69.16
79544;BME280;68994;47.176;7.534;2023-07-31T07:29:55;96159.81;;;17.00;68.95
79544;BME280;68994;47.176;7.534;2023-07-31T07:32:22;96164.16;;;17.15;65.71
79544;BME280;68994;47.176;7.534;2023-07-31T07:34:48;96175.81;;;17.10;66.90
79544;BME280;68994;47.176;7.534;2023-07-31T07:37:15;96173.63;;;17.12;67.70
79544;BME280;68994;47.176;7.534;2023-07-31T07:39:42;96180.63;;;17.13;67.83
79544;BME280;68994;47.176;7.534;2023-07-31T07:42:09;96166.47;;;17.21;66.93
79544;BME280;68994;47.176;7.534;2023-07-31T07:44:36;96167.19;;;17.41;66.77
79544;BME280;68994;47.176;7.534;2023-07-31T07:47:03;96163.94;;;17.58;65.81
79544;BME280;68994;47.176;7.534;2023-07-31T07:49:31;96162.44;;;17.79;66.27
79544;BME280;68994;47.176;7.534;2023-07-31T07:51:57;96168.38;;;17.95;68.73
79544;BME280;68994;47.176;7.534;2023-07-31T07:54:24;96165.66;;;18.09;67.24
79544;BME280;68994;47.176;7.534;2023-07-31T07:56:50;96169.56;;;18.17;65.91
79544;BME280;68994;47.176;7.534;2023-07-31T07:59:17;96164.75;;;18.28;66.56
79544;BME280;68994;47.176;7.534;2023-07-31T08:01:45;96159.59;;;18.54;67.40
79544;BME280;68994;47.176;7.534;2023-07-31T08:04:11;96158.56;;;18.64;64.35
79544;BME280;68994;47.176;7.534;2023-07-31T08:06:38;96151.63;;;18.71;65.19
79544;BME280;68994;47.176;7.534;2023-07-31T08:09:05;96167.31;;;18.83;60.42
79544;BME280;68994;47.176;7.534;2023-07-31T08:11:31;96163.72;;;18.88;59.49
79544;BME280;68994;47.176;7.534;2023-07-31T08:13:58;96160.63;;;18.81;59.03
79544;BME280;68994;47.176;7.534;2023-07-31T08:16:25;96159.50;;;18.82;58.87
79544;BME280;68994;47.176;7.534;2023-07-31T08:18:53;96155.31;;;18.76;59.78
79544;BME280;68994;47.176;7.534;2023-07-31T08:21:20;96155.81;;;18.78;60.66
79544;BME280;68994;47.176;7.534;2023-07-31T08:23:47;96145.97;;;18.82;59.46
79544;BME280;68994;47.176;7.534;2023-07-31T08:26:16;96135.78;;;18.79;60.06
79544;BME280;68994;47.176;7.534;2023-07-31T08:28:43;96128.56;;;18.88;58.98
79544;BME280;68994;47.176;7.534;2023-07-31T08:31:09;96124.25;;;18.87;58.21
79544;BME280;68994;47.176;7.534;2023-07-31T08:33:37;96126.09;;;19.00;59.11
79544;BME280;68994;47.176;7.534;2023-07-31T08:36:05;96131.94;;;19.16;55.63
79544;BME280;68994;47.176;7.534;2023-07-31T08:38:31;96122.59;;;19.22;54.75
79544;BME280;68994;47.176;7.534;2023-07-31T08:40:58;96125.59;;;19.21;54.59
79544;BME280;68994;47.176;7.534;2023-07-31T08:43:25;96120.81;;;19.18;54.34
79544;BME280;68994;47.176;7.534;2023-07-31T08:45:52;96114.16;;;19.24;54.85
79544;BME280;68994;47.176;7.534;2023-07-31T08:48:20;96119.47;;;19.38;54.84
79544;BME280;68994;47.176;7.534;2023-07-31T08:50:47;96119.84;;;19.54;56.67
79544;BME280;68994;47.176;7.534;2023-07-31T08:53:15;96109.69;;;19.59;53.51
79544;BME280;68994;47.176;7.534;2023-07-31T08:55:43;96118.56;;;19.82;53.58
79544;BME280;68994;47.176;7.534;2023-07-31T08:58:12;96111.75;;;19.94;55.41
79544;BME280;68994;47.176;7.534;2023-07-31T09:00:40;96113.19;;;20.00;55.02
79544;BME280;68994;47.176;7.534;2023-07-31T09:03:11;96109.09;;;20.11;53.91
79544;BME280;68994;47.176;7.534;2023-07-31T09:05:42;96104.91;;;20.05;52.98
79544;BME280;68994;47.176;7.534;2023-07-31T09:08:09;96102.88;;;20.28;56.58
79544;BME280;68994;47.176;7.534;2023-07-31T09:10:41;96097.97;;;20.56;59.15
79544;BME280;68994;47.176;7.534;2023-07-31T09:13:08;96100.03;;;20.77;59.31
79544;BME280;68994;47.176;7.534;2023-07-31T09:15:35;96093.47;;;20.96;57.01
79544;BME280;68994;47.176;7.534;2023-07-31T09:18:03;96089.78;;;21.09;52.16
79544;BME280;68994;47.176;7.534;2023-07-31T09:20:30;96088.31;;;21.20;52.56
79544;BME280;68994;47.176;7.534;2023-07-31T09:23:05;96101.34;;;21.36;54.25
79544;BME280;68994;47.176;7.534;2023-07-31T09:25:32;96101.13;;;21.58;54.41
79544;BME280;68994;47.176;7.534;2023-07-31T09:28:01;96106.72;;;21.92;55.06
79544;BME280;68994;47.176;7.534;2023-07-31T09:30:28;96096.38;;;22.15;54.14
79544;BME280;68994;47.176;7.534;2023-07-31T09:33:00;96092.88;;;22.35;54.66
79544;BME280;68994;47.176;7.534;2023-07-31T09:35:28;96079.09;;;22.40;52.36
79544;BME280;68994;47.176;7.534;2023-07-31T09:37:57;96075.22;;;22.84;51.46
79544;BME280;68994;47.176;7.534;2023-07-31T09:40:28;96064.28;;;24.12;49.55
79544;BME280;68994;47.176;7.534;2023-07-31T09:42:59;96060.88;;;25.12;44.79
79544;BME280;68994;47.176;7.534;2023-07-31T09:45:27;96061.91;;;27.17;42.90
79544;BME280;68994;47.176;7.534;2023-07-31T09:47:55;96061.31;;;28.00;36.52
79544;BME280;68994;47.176;7.534;2023-07-31T09:50:22;96060.03;;;29.15;36.19
79544;BME280;68994;47.176;7.534;2023-07-31T09:52:49;96056.41;;;30.56;36.55
79544;BME280;68994;47.176;7.534;2023-07-31T09:55:16;96050.78;;;31.73;31.64
79544;BME280;68994;47.176;7.534;2023-07-31T09:57:45;96047.16;;;32.37;29.16
79544;BME280;68994;47.176;7.534;2023-07-31T10:00:13;96042.59;;;32.94;29.60
79544;BME280;68994;47.176;7.534;2023-07-31T10:02:44;96039.94;;;32.76;28.34
79544;BME280;68994;47.176;7.534;2023-07-31T10:05:13;96027.47;;;33.13;26.54
79544;BME280;68994;47.176;7.534;2023-07-31T10:07:42;96025.88;;;33.22;27.44
79544;BME280;68994;47.176;7.534;2023-07-31T10:10:09;96021.47;;;33.32;28.43
79544;BME280;68994;47.176;7.534;2023-07-31T10:12:37;96001.00;;;33.68;26.04
79544;BME280;68994;47.176;7.534;2023-07-31T10:15:05;96009.38;;;33.57;28.15
79544;BME280;68994;47.176;7.534;2023-07-31T10:17:32;95998.88;;;33.86;27.68
79544;BME280;68994;47.176;7.534;2023-07-31T10:20:02;95999.63;;;33.94;27.91
79544;BME280;68994;47.176;7.534;2023-07-31T10:22:30;95991.31;;;33.90;26.37
79544;BME280;68994;47.176;7.534;2023-07-31T10:24:58;95987.09;;;33.30;24.48
79544;BME280;68994;47.176;7.534;2023-07-31T10:27:25;95984.59;;;32.90;25.11
79544;BME280;68994;47.176;7.534;2023-07-31T10:29:53;95981.34;;;33.02;28.99
79544;BME280;68994;47.176;7.534;2023-07-31T10:32:21;95982.84;;;33.18;27.16
79544;BME280;68994;47.176;7.534;2023-07-31T10:34:51;95982.09;;;33.06;24.34
79544;BME280;68994;47.176;7.534;2023-07-31T10:37:23;95975.66;;;32.64;24.18
79544;BME280;68994;47.176;7.534;2023-07-31T10:39:58;95972.94;;;32.50;24.70
79544;BME280;68994;47.176;7.534;2023-07-31T10:42:29;95970.28;;;32.25;24.71
79544;BME280;68994;47.176;7.534;2023-07-31T10:44:57;95953.06;;;31.67;24.61
79544;BME280;68994;47.176;7.534;2023-07-31T10:47:24;95963.72;;;31.39;25.87
79544;BME280;68994;47.176;7.534;2023-07-31T10:49:51;95966.78;;;30.87;26.14
79544;BME280;68994;47.176;7.534;2023-07-31T10:52:20;95963.69;;;31.03;24.97
79544;BME280;68994;47.176;7.534;2023-07-31T10:54:50;95959.31;;;30.92;25.59
79544;BME280;68994;47.176;7.534;2023-07-31T10:57:20;95951.09;;;31.42;25.43
79544;BME280;68994;47.176;7.534;2023-07-31T10:59:48;95953.66;;;32.35;26.56
79544;BME280;68994;47.176;7.534;2023-07-31T11:02:24;95949.03;;;32.18;25.19
79544;BME280;68994;47.176;7.534;2023-07-31T11:05:07;95943.88;;;32.20;24.83
79544;BME280;68994;47.176;7.534;2023-07-31T11:07:49;95939.03;;;32.42;22.92
79544;BME280;68994;47.176;7.534;2023-07-31T11:10:18;95937.56;;;32.23;24.06
79544;BME280;68994;47.176;7.534;2023-07-31T11:12:45;95934.44;;;32.03;25.98
79544;BME280;68994;47.176;7.534;2023-07-31T11:15:12;95931.94;;;32.38;25.83
79544;BME280;68994;47.176;7.534;2023-07-31T11:17:39;95928.19;;;32.80;24.54
79544;BME280;68994;47.176;7.534;2023-07-31T11:20:06;95916.34;;;32.83;24.87
79544;BME280;68994;47.176;7.534;2023-07-31T11:22:34;95925.78;;;33.38;24.85
79544;BME280;68994;47.176;7.534;2023-07-31T11:25:01;95921.06;;;33.39;22.38
79544;BME280;68994;47.176;7.534;2023-07-31T11:27:30;95927.44;;;33.32;22.53
79544;BME280;68994;47.176;7.534;2023-07-31T11:30:00;95918.47;;;33.17;23.80
79544;BME280;68994;47.176;7.534;2023-07-31T11:32:27;95910.22;;;33.06;22.64
79544;BME280;68994;47.176;7.534;2023-07-31T11:34:54;95898.59;;;32.81;23.91
79544;BME280;68994;47.176;7.534;2023-07-31T11:37:20;95901.19;;;33.02;24.18
79544;BME280;68994;47.176;7.534;2023-07-31T11:39:58;95900.22;;;33.27;23.21
79544;BME280;68994;47.176;7.534;2023-07-31T11:42:25;95898.31;;;33.13;23.80
79544;BME280;68994;47.176;7.534;2023-07-31T11:44:53;95904.75;;;33.48;22.28
79544;BME280;68994;47.176;7.534;2023-07-31T11:47:19;95893.41;;;33.80;22.64
79544;BME280;68994;47.176;7.534;2023-07-31T11:49:46;95881.94;;;33.78;25.62
79544;BME280;68994;47.176;7.534;2023-07-31T11:52:14;95880.03;;;34.37;23.22
79544;BME280;68994;47.176;7.534;2023-07-31T11:54:41;95878.97;;;34.31;23.68
79544;BME280;68994;47.176;7.534;2023-07-31T11:57:09;95876.94;;;34.00;23.55
79544;BME280;68994;47.176;7.534;2023-07-31T11:59:37;95874.19;;;33.62;22.53
79544;BME280;68994;47.176;7.534;2023-07-31T12:02:05;95866.66;;;33.63;23.14
79544;BME280;68994;47.176;7.534;2023-07-31T12:04:32;95869.56;;;33.52;23.87
79544;BME280;68994;47.176;7.534;2023-07-31T12:07:00;95874.22;;;33.59;23.92
79544;BME280;68994;47.176;7.534;2023-07-31T12:09:27;95859.34;;;33.45;25.12
79544;BME280;68994;47.176;7.534;2023-07-31T12:11:54;95861.69;;;33.05;24.10
79544;BME280;68994;47.176;7.534;2023-07-31T12:14:21;95854.91;;;33.14;23.08
79544;BME280;68994;47.176;7.534;2023-07-31T12:16:53;95851.34;;;33.55;26.85
79544;BME280;68994;47.176;7.534;2023-07-31T12:19:22;95846.47;;;33.28;23.03
79544;BME280;68994;47.176;7.534;2023-07-31T12:21:49;95841.63;;;32.94;24.84
79544;BME280;68994;47.176;7.534;2023-07-31T12:24:18;95843.00;;;31.94;26.73
79544;BME280;68994;47.176;7.534;2023-07-31T12:26:45;95834.09;;;32.42;25.54
79544;BME280;68994;47.176;7.534;2023-07-31T12:29:12;95829.50;;;32.21;24.67
79544;BME280;68994;47.176;7.534;2023-07-31T12:31:41;95828.72;;;32.17;26.18
79544;BME280;68994;47.176;7.534;2023-07-31T12:34:15;95823.34;;;32.62;26.56
79544;BME280;68994;47.176;7.534;2023-07-31T12:36:44;95811.31;;;32.87;24.60
79544;BME280;68994;47.176;7.534;2023-07-31T12:39:11;95803.34;;;32.92;24.69
79544;BME280;68994;47.176;7.534;2023-07-31T12:41:37;95793.06;;;32.93;24.31
79544;BME280;68994;47.176;7.534;2023-07-31T12:44:04;95796.91;;;32.61;24.05
79544;BME280;68994;47.176;7.534;2023-07-31T12:46:31;95798.91;;;33.02;25.64
79544;BME280;68994;47.176;7.534;2023-07-31T12:48:58;95801.56;;;32.71;24.09
79544;BME280;68994;47.176;7.534;2023-07-31T12:51:25;95793.19;;;31.31;26.05
79544;BME280;68994;47.176;7.534;2023-07-31T12:53:52;95805.44;;;30.86;26.43
79544;BME280;68994;47.176;7.534;2023-07-31T12:56:19;95801.09;;;30.75;27.61
79544;BME280;68994;47.176;7.534;2023-07-31T12:58:46;95801.44;;;30.26;27.87
79544;BME280;68994;47.176;7.534;2023-07-31T13:01:12;95790.50;;;30.41;28.14